createdAt,value
2023-04-10T00:02:25.113Z,7.37
2023-04-10T00:04:52.355Z,7.77
2023-04-10T00:07:19.162Z,6.73
2023-04-10T00:09:46.043Z,7.53
2023-04-10T00:12:12.950Z,6.87
2023-04-10T00:14:42.202Z,7.10
2023-04-10T00:17:09.289Z,7.47
2023-04-10T00:19:36.244Z,6.93
2023-04-10T00:22:03.279Z,8.20
2023-04-10T00:24:30.443Z,7.73
2023-04-10T00:26:57.785Z,7.17
2023-04-10T00:29:27.428Z,6.73
2023-04-10T00:31:54.314Z,6.60
2023-04-10T00:34:21.065Z,6.50
2023-04-10T00:36:47.935Z,6.63
2023-04-10T00:39:17.479Z,7.10
2023-04-10T00:41:44.282Z,7.00
2023-04-10T00:44:14.031Z,6.90
2023-04-10T00:46:41.367Z,7.10
2023-04-10T00:49:09.647Z,6.47
2023-04-10T00:51:39.805Z,6.87
2023-04-10T00:54:06.676Z,7.23
2023-04-10T00:56:33.895Z,7.47
2023-04-10T00:59:00.783Z,6.67
2023-04-10T01:01:27.586Z,7.20
2023-04-10T01:03:55.045Z,7.37
2023-04-10T01:06:24.862Z,7.10
2023-04-10T01:09:04.084Z,6.60
2023-04-10T01:12:00.153Z,6.70
2023-04-10T01:14:47.751Z,6.63
2023-04-10T01:17:37.444Z,6.43
2023-04-10T01:20:19.214Z,6.17
2023-04-10T01:23:21.899Z,6.20
2023-04-10T01:26:04.239Z,6.57
2023-04-10T01:28:47.493Z,6.77
2023-04-10T01:31:24.131Z,6.57
2023-04-10T01:33:57.874Z,5.97
2023-04-10T01:36:30.302Z,6.07
2023-04-10T01:38:58.652Z,6.50
2023-04-10T01:41:26.869Z,5.90
2023-04-10T01:43:55.798Z,6.20
2023-04-10T01:46:23.371Z,5.60
2023-04-10T01:48:52.218Z,5.50
2023-04-10T01:51:19.426Z,5.67
2023-04-10T01:53:48.122Z,5.43
2023-04-10T01:56:18.485Z,6.00
2023-04-10T01:58:45.572Z,5.67
2023-04-10T02:01:29.276Z,5.30
2023-04-10T02:03:58.719Z,5.37
2023-04-10T02:06:57.574Z,5.63
2023-04-10T02:09:35.096Z,5.40
2023-04-10T02:12:09.165Z,6.00
2023-04-10T02:14:38.838Z,5.20
2023-04-10T02:17:08.161Z,5.33
2023-04-10T02:19:35.754Z,6.30
2023-04-10T02:22:05.086Z,5.57
2023-04-10T02:24:33.735Z,5.80
2023-04-10T02:27:01.581Z,5.73
2023-04-10T02:29:31.517Z,5.90
2023-04-10T02:32:02.977Z,5.77
2023-04-10T02:34:29.722Z,5.50
2023-04-10T02:36:56.938Z,5.73
2023-04-10T02:39:23.734Z,5.53
2023-04-10T02:41:50.634Z,5.67
2023-04-10T02:44:17.506Z,6.23
2023-04-10T02:46:44.422Z,6.03
2023-04-10T02:49:11.197Z,5.67
2023-04-10T02:51:38.071Z,5.73
2023-04-10T02:54:04.869Z,5.40
2023-04-10T02:56:34.798Z,6.07
2023-04-10T02:59:02.220Z,6.10
2023-04-10T03:01:29.147Z,6.13
2023-04-10T03:03:56.107Z,6.17
2023-04-10T03:06:26.166Z,6.23
2023-04-10T03:08:53.589Z,5.93
2023-04-10T03:11:20.315Z,5.87
2023-04-10T03:13:47.479Z,5.67
2023-04-10T03:16:25.353Z,6.17
2023-04-10T03:18:53.294Z,6.27
2023-04-10T03:21:20.219Z,5.73
2023-04-10T03:23:46.940Z,6.13
2023-04-10T03:26:13.695Z,5.83
2023-04-10T03:28:41.371Z,5.73
2023-04-10T03:31:12.498Z,6.33
2023-04-10T03:33:39.528Z,6.03
2023-04-10T03:36:06.829Z,6.30
2023-04-10T03:38:33.653Z,6.50
2023-04-10T03:41:00.513Z,5.87
2023-04-10T03:43:27.281Z,6.70
2023-04-10T03:45:54.076Z,6.60
2023-04-10T03:48:20.897Z,6.70
2023-04-10T03:50:47.690Z,6.60
2023-04-10T03:53:17.384Z,6.73
2023-04-10T03:55:44.177Z,7.00
2023-04-10T03:58:10.972Z,7.40
2023-04-10T04:00:46.451Z,6.90
2023-04-10T04:03:15.888Z,6.00
2023-04-10T04:05:42.823Z,7.10
2023-04-10T04:08:14.003Z,6.43
2023-04-10T04:10:40.912Z,6.83
2023-04-10T04:13:10.785Z,6.53
2023-04-10T04:15:37.498Z,6.97
2023-04-10T04:18:04.522Z,6.70
2023-04-10T04:20:31.286Z,7.23
2023-04-10T04:22:58.024Z,7.37
2023-04-10T04:25:24.866Z,7.33
2023-04-10T04:27:51.663Z,6.80
2023-04-10T04:30:18.410Z,7.10
2023-04-10T04:32:45.535Z,7.13
2023-04-10T04:35:12.425Z,7.33
2023-04-10T04:37:39.201Z,7.23
2023-04-10T04:40:06.481Z,7.03
2023-04-10T04:42:33.386Z,7.23
2023-04-10T04:45:00.235Z,7.80
2023-04-10T04:47:27.129Z,7.53
2023-04-10T04:49:54.249Z,6.97
2023-04-10T04:52:20.935Z,7.40
2023-04-10T04:54:50.924Z,8.00
2023-04-10T04:57:17.621Z,6.80
2023-04-10T04:59:44.460Z,7.63
2023-04-10T05:02:11.402Z,6.77
2023-04-10T05:04:40.439Z,7.77
2023-04-10T05:07:07.511Z,7.80
2023-04-10T05:09:34.293Z,7.30
2023-04-10T05:12:01.005Z,7.57
2023-04-10T05:14:27.989Z,7.17
2023-04-10T05:16:54.699Z,7.07
2023-04-10T05:19:21.558Z,7.13
2023-04-10T05:21:48.365Z,7.33
2023-04-10T05:24:15.335Z,7.67
2023-04-10T05:26:44.831Z,7.07
2023-04-10T05:29:11.513Z,7.13
2023-04-10T05:31:38.886Z,7.40
2023-04-10T05:34:05.757Z,7.20
2023-04-10T05:36:32.751Z,7.37
2023-04-10T05:39:02.331Z,7.33
2023-04-10T05:41:29.000Z,6.60
2023-04-10T05:43:56.242Z,7.13
2023-04-10T05:46:23.157Z,7.00
2023-04-10T05:48:51.013Z,7.30
2023-04-10T05:51:17.734Z,6.80
2023-04-10T05:53:44.761Z,7.07
2023-04-10T05:56:12.639Z,6.90
2023-04-10T05:58:39.320Z,7.37
2023-04-10T06:01:06.458Z,7.07
2023-04-10T06:03:33.307Z,6.77
2023-04-10T06:06:02.651Z,6.97
2023-04-10T06:08:29.598Z,6.73
2023-04-10T06:10:56.434Z,6.73
2023-04-10T06:13:24.220Z,7.00
2023-04-10T06:15:51.343Z,7.70
2023-04-10T06:18:18.070Z,7.60
2023-04-10T06:20:46.890Z,6.67
2023-04-10T06:23:14.245Z,7.83
2023-04-10T06:25:41.832Z,6.77
2023-04-10T06:28:08.560Z,6.63
2023-04-10T06:30:37.226Z,6.77
2023-04-10T06:33:09.842Z,6.80
2023-04-10T06:35:37.647Z,6.77
2023-04-10T06:38:04.919Z,6.20
2023-04-10T06:40:34.098Z,6.93
2023-04-10T06:43:02.366Z,6.90
2023-04-10T06:45:29.112Z,7.03
2023-04-10T06:47:55.854Z,7.47
2023-04-10T06:50:22.690Z,6.17
2023-04-10T06:52:49.613Z,6.33
2023-04-10T06:55:17.197Z,6.30
2023-04-10T06:57:44.010Z,6.37
2023-04-10T07:00:11.293Z,6.43
2023-04-10T07:02:40.912Z,6.23
2023-04-10T07:05:08.116Z,6.13
2023-04-10T07:07:34.922Z,7.03
2023-04-10T07:10:01.719Z,6.53
2023-04-10T07:12:29.658Z,6.20
2023-04-10T07:14:56.468Z,6.50
2023-04-10T07:17:23.186Z,5.83
2023-04-10T07:19:49.949Z,6.63
2023-04-10T07:22:16.820Z,6.67
2023-04-10T07:24:44.209Z,6.63
2023-04-10T07:27:12.360Z,6.20
2023-04-10T07:29:39.065Z,6.10
2023-04-10T07:32:08.298Z,6.17
2023-04-10T07:34:35.110Z,5.97
2023-04-10T07:37:01.860Z,6.43
2023-04-10T07:39:28.602Z,5.93
2023-04-10T07:41:55.428Z,6.10
2023-04-10T07:44:22.458Z,6.47
2023-04-10T07:46:49.438Z,6.33
2023-04-10T07:49:16.287Z,6.80
2023-04-10T07:51:43.301Z,6.70
2023-04-10T07:54:10.065Z,5.50
2023-04-10T07:56:36.778Z,6.07
2023-04-10T07:59:03.837Z,6.90
2023-04-10T08:01:37.010Z,5.83
2023-04-10T08:04:05.979Z,6.23
2023-04-10T08:06:34.389Z,5.80
2023-04-10T08:09:02.043Z,6.23
2023-04-10T08:11:30.733Z,6.17
2023-04-10T08:14:01.674Z,6.43
2023-04-10T08:16:30.853Z,6.13
2023-04-10T08:18:59.017Z,5.80
2023-04-10T08:21:30.745Z,6.10
2023-04-10T08:23:59.418Z,6.40
2023-04-10T08:26:27.651Z,5.87
2023-04-10T08:28:57.499Z,5.93
2023-04-10T08:31:25.934Z,6.20
2023-04-10T08:33:53.256Z,5.83
2023-04-10T08:36:20.650Z,6.20
2023-04-10T08:38:48.243Z,6.10
2023-04-10T08:41:17.101Z,5.80
2023-04-10T08:43:45.796Z,6.30
2023-04-10T08:46:16.150Z,5.53
2023-04-10T08:49:04.258Z,5.30
2023-04-10T08:51:57.610Z,5.83
2023-04-10T08:54:36.055Z,5.50
2023-04-10T08:57:04.124Z,5.13
2023-04-10T08:59:31.557Z,5.77
2023-04-10T09:01:59.409Z,5.30
2023-04-10T09:04:27.264Z,5.80
2023-04-10T09:06:54.085Z,5.50
2023-04-10T09:09:20.960Z,5.63
2023-04-10T09:11:56.805Z,5.50
2023-04-10T09:14:29.485Z,5.83
2023-04-10T09:17:13.515Z,5.50
2023-04-10T09:19:40.461Z,5.10
2023-04-10T09:22:07.309Z,5.13
2023-04-10T09:24:47.401Z,4.97
2023-04-10T09:27:38.509Z,5.30
2023-04-10T09:30:08.442Z,5.00
2023-04-10T09:32:43.466Z,5.20
2023-04-10T09:35:21.006Z,5.70
2023-04-10T09:37:47.813Z,6.00
2023-04-10T09:40:25.134Z,4.97
2023-04-10T09:42:52.545Z,5.37
2023-04-10T09:45:20.577Z,5.57
2023-04-10T09:48:07.884Z,6.30
2023-04-10T09:50:39.499Z,5.50
2023-04-10T09:53:19.239Z,5.67
2023-04-10T09:55:47.549Z,5.67
2023-04-10T09:58:15.904Z,5.70
2023-04-10T10:00:44.835Z,6.07
2023-04-10T10:03:16.572Z,5.63
2023-04-10T10:05:45.453Z,5.60
2023-04-10T10:08:13.440Z,5.27
2023-04-10T10:10:48.430Z,5.40
2023-04-10T10:13:44.539Z,6.00
2023-04-10T10:16:22.170Z,4.90
2023-04-10T10:18:59.391Z,4.90
2023-04-10T10:21:28.482Z,5.10
2023-04-10T10:23:59.045Z,5.10
2023-04-10T10:26:26.379Z,5.30
2023-04-10T10:28:56.126Z,5.37
2023-04-10T10:31:24.911Z,5.03
2023-04-10T10:33:55.391Z,5.00
2023-04-10T10:36:22.953Z,5.17
2023-04-10T10:39:24.764Z,4.60
2023-04-10T10:42:18.787Z,4.53
2023-04-10T10:44:58.384Z,5.20
2023-04-10T10:47:32.426Z,5.70
2023-04-10T10:50:03.534Z,4.93
2023-04-10T10:52:43.438Z,4.53
2023-04-10T10:55:22.427Z,4.10
2023-04-10T10:57:50.346Z,4.00
2023-04-10T11:00:17.211Z,4.07
2023-04-10T11:02:44.660Z,3.37
2023-04-10T11:05:54.299Z,3.67
2023-04-10T11:08:35.854Z,3.63
2023-04-10T11:11:18.546Z,3.87
2023-04-10T11:13:52.169Z,3.43
2023-04-10T11:16:20.457Z,3.27
2023-04-10T11:18:56.197Z,3.70
2023-04-10T11:21:35.769Z,3.60
2023-04-10T11:24:04.590Z,4.17
2023-04-10T11:26:41.250Z,3.67
2023-04-10T11:29:19.512Z,3.73
2023-04-10T11:31:56.471Z,3.40
2023-04-10T11:34:23.441Z,3.47
2023-04-10T11:36:50.457Z,3.20
2023-04-10T11:39:21.499Z,3.43
2023-04-10T11:41:50.443Z,3.23
2023-04-10T11:44:28.886Z,3.43
2023-04-10T11:46:58.228Z,3.53
2023-04-10T11:49:28.084Z,2.97
2023-04-10T11:51:55.433Z,3.07
2023-04-10T11:54:24.611Z,2.90
2023-04-10T11:57:04.630Z,3.27
2023-04-10T11:59:32.831Z,2.87
2023-04-10T12:02:16.046Z,2.93
2023-04-10T12:04:46.047Z,2.73
2023-04-10T12:07:18.990Z,3.20
2023-04-10T12:09:46.328Z,2.73
2023-04-10T12:12:14.379Z,2.90
2023-04-10T12:14:42.726Z,2.87
2023-04-10T12:17:11.254Z,3.20
2023-04-10T12:19:41.465Z,2.50
2023-04-10T12:22:11.104Z,2.80
2023-04-10T12:24:42.330Z,2.67
2023-04-10T12:27:16.771Z,2.80
2023-04-10T12:29:44.332Z,2.90
2023-04-10T12:32:11.127Z,2.70
2023-04-10T12:34:38.591Z,2.87
2023-04-10T12:37:06.185Z,2.43
2023-04-10T12:39:33.040Z,2.73
2023-04-10T12:42:15.484Z,2.87
2023-04-10T12:44:58.886Z,2.70
2023-04-10T12:47:28.042Z,3.17
2023-04-10T12:50:15.023Z,2.70
2023-04-10T12:52:46.646Z,2.73
2023-04-10T12:55:15.518Z,2.50
2023-04-10T12:57:46.802Z,2.33
2023-04-10T13:00:16.438Z,2.60
2023-04-10T13:02:43.830Z,2.70
2023-04-10T13:05:11.445Z,2.60
2023-04-10T13:07:41.677Z,2.50
2023-04-10T13:10:08.838Z,2.50
2023-04-10T13:12:36.394Z,2.17
2023-04-10T13:15:03.842Z,2.40
2023-04-10T13:17:30.636Z,2.43
2023-04-10T13:19:57.471Z,2.10
2023-04-10T13:22:24.346Z,2.00
2023-04-10T13:24:53.773Z,2.70
2023-04-10T13:27:20.726Z,2.30
2023-04-10T13:29:47.583Z,2.17
2023-04-10T13:32:14.475Z,2.17
2023-04-10T13:34:41.395Z,2.40
2023-04-10T13:37:09.342Z,2.40
2023-04-10T13:39:36.167Z,2.43
2023-04-10T13:42:02.826Z,2.33
2023-04-10T13:44:29.667Z,2.40
2023-04-10T13:46:58.056Z,2.13
2023-04-10T13:49:25.034Z,2.30
2023-04-10T13:51:51.758Z,2.20
2023-04-10T13:54:18.638Z,2.30
2023-04-10T13:56:46.580Z,2.10
2023-04-10T13:59:13.479Z,2.23
2023-04-10T14:01:40.469Z,2.70
2023-04-10T14:04:07.560Z,2.30
2023-04-10T14:06:34.507Z,2.20
2023-04-10T14:09:01.558Z,2.40
2023-04-10T14:11:31.571Z,2.23
2023-04-10T14:14:02.029Z,2.47
2023-04-10T14:16:28.925Z,2.27
2023-04-10T14:18:55.925Z,2.50
2023-04-10T14:21:22.898Z,2.50
2023-04-10T14:23:49.692Z,2.40
2023-04-10T14:26:16.473Z,2.20
2023-04-10T14:28:43.288Z,2.50
2023-04-10T14:31:13.174Z,2.43
2023-04-10T14:33:40.140Z,2.40
2023-04-10T14:36:07.260Z,2.70
2023-04-10T14:38:34.181Z,2.53
2023-04-10T14:41:00.997Z,2.90
2023-04-10T14:43:27.758Z,2.30
2023-04-10T14:45:54.522Z,2.17
2023-04-10T14:48:21.383Z,2.57
2023-04-10T14:50:49.529Z,2.83
2023-04-10T14:53:16.944Z,2.20
2023-04-10T14:55:43.733Z,2.53
2023-04-10T14:58:11.397Z,2.40
2023-04-10T15:00:38.201Z,2.33
2023-04-10T15:03:06.645Z,2.40
2023-04-10T15:05:33.643Z,2.53
2023-04-10T15:08:00.510Z,2.50
2023-04-10T15:10:31.573Z,2.33
2023-04-10T15:12:58.423Z,2.87
2023-04-10T15:15:25.220Z,2.83
2023-04-10T15:17:52.100Z,2.83
2023-04-10T15:20:19.239Z,2.80
2023-04-10T15:22:48.029Z,2.80
2023-04-10T15:25:15.134Z,2.60
2023-04-10T15:27:41.941Z,2.60
2023-04-10T15:30:09.004Z,2.70
2023-04-10T15:32:38.012Z,2.50
2023-04-10T15:35:05.895Z,2.60
2023-04-10T15:37:35.041Z,2.80
2023-04-10T15:40:06.295Z,2.70
2023-04-10T15:42:36.750Z,2.67
2023-04-10T15:45:04.085Z,2.40
2023-04-10T15:47:31.101Z,2.50
2023-04-10T15:50:01.019Z,2.50
2023-04-10T15:52:29.438Z,2.60
2023-04-10T15:54:57.405Z,2.33
2023-04-10T15:57:24.190Z,2.63
2023-04-10T15:59:56.153Z,2.03
2023-04-10T16:02:23.072Z,2.90
2023-04-10T16:04:49.987Z,2.53
2023-04-10T16:07:21.114Z,2.93
2023-04-10T16:09:48.067Z,3.20
2023-04-10T16:12:14.887Z,2.53
2023-04-10T16:14:41.588Z,3.20
2023-04-10T16:17:08.353Z,2.90
2023-04-10T16:19:35.282Z,3.17
2023-04-10T16:22:02.121Z,3.00
2023-04-10T16:24:29.061Z,2.73
2023-04-10T16:26:56.482Z,3.07
2023-04-10T16:29:23.343Z,3.00
2023-04-10T16:31:52.722Z,3.00
2023-04-10T16:34:19.835Z,2.90
2023-04-10T16:36:46.589Z,3.13
2023-04-10T16:39:13.363Z,2.93
2023-04-10T16:41:43.181Z,3.23
2023-04-10T16:44:10.032Z,3.40
2023-04-10T16:46:37.036Z,3.80
2023-04-10T16:49:06.688Z,3.70
2023-04-10T16:51:33.403Z,3.70
2023-04-10T16:54:00.285Z,4.73
2023-04-10T16:56:27.140Z,3.63
2023-04-10T16:58:54.145Z,3.57
2023-04-10T17:01:25.777Z,4.03
2023-04-10T17:03:55.747Z,3.90
2023-04-10T17:06:22.864Z,3.47
2023-04-10T17:08:50.001Z,3.50
2023-04-10T17:11:16.716Z,3.53
2023-04-10T17:13:46.174Z,3.50
2023-04-10T17:16:13.201Z,3.40
2023-04-10T17:18:40.745Z,3.50
2023-04-10T17:21:21.016Z,3.90
2023-04-10T17:23:48.858Z,3.50
2023-04-10T17:26:16.950Z,3.60
2023-04-10T17:28:45.163Z,3.40
2023-04-10T17:31:13.373Z,4.13
2023-04-10T17:33:43.546Z,4.30
2023-04-10T17:36:12.399Z,4.53
2023-04-10T17:38:40.171Z,3.83
2023-04-10T17:41:10.340Z,2.93
2023-04-10T17:43:37.072Z,3.10
2023-04-10T17:46:03.930Z,3.50
2023-04-10T17:48:31.124Z,3.47
2023-04-10T17:50:58.210Z,3.20
2023-04-10T17:53:28.233Z,3.33
2023-04-10T17:55:54.945Z,2.80
2023-04-10T17:58:21.694Z,3.60
2023-04-10T18:00:48.401Z,3.73
2023-04-10T18:03:15.214Z,4.10
2023-04-10T18:05:42.048Z,4.03
2023-04-10T18:08:08.905Z,3.60
2023-04-10T18:10:36.054Z,3.53
2023-04-10T18:13:02.886Z,3.77
2023-04-10T18:15:30.193Z,3.63
2023-04-10T18:18:04.431Z,4.17
2023-04-10T18:20:55.081Z,4.67
2023-04-10T18:23:28.478Z,3.93
2023-04-10T18:25:55.922Z,4.00
2023-04-10T18:28:23.199Z,4.20
2023-04-10T18:30:55.078Z,3.77
2023-04-10T18:33:25.070Z,4.20
2023-04-10T18:35:59.552Z,4.07
2023-04-10T18:38:26.989Z,4.03
2023-04-10T18:40:57.944Z,3.83
2023-04-10T18:43:25.648Z,3.83
2023-04-10T18:45:52.582Z,3.83
2023-04-10T18:48:19.549Z,3.50
2023-04-10T18:50:46.374Z,3.70
2023-04-10T18:53:13.163Z,3.67
2023-04-10T18:55:39.873Z,3.53
2023-04-10T18:58:07.025Z,2.83
2023-04-10T19:00:34.205Z,3.43
2023-04-10T19:03:01.397Z,3.00
2023-04-10T19:05:32.514Z,3.37
2023-04-10T19:08:04.255Z,3.47
2023-04-10T19:10:32.408Z,2.67
2023-04-10T19:12:59.257Z,3.10
2023-04-10T19:15:26.070Z,2.63
2023-04-10T19:17:53.933Z,2.30
2023-04-10T19:20:50.944Z,2.20
2023-04-10T19:23:09.453Z,2.07
2023-04-10T19:25:36.246Z,2.37
2023-04-10T19:28:03.141Z,2.17
2023-04-10T19:30:30.064Z,2.27
2023-04-10T19:32:56.925Z,1.90
2023-04-10T19:35:23.679Z,2.30
2023-04-10T19:37:50.447Z,2.03
2023-04-10T19:40:19.264Z,2.00
2023-04-10T19:42:46.215Z,1.70
2023-04-10T19:45:13.450Z,1.70
2023-04-10T19:47:40.358Z,1.90
2023-04-10T19:50:07.893Z,1.60
2023-04-10T19:52:34.638Z,1.67
2023-04-10T19:55:01.604Z,2.00
2023-04-10T19:57:28.345Z,1.90
2023-04-10T19:59:55.320Z,1.90
2023-04-10T20:02:23.041Z,1.50
2023-04-10T20:04:49.987Z,2.03
2023-04-10T20:07:16.856Z,1.80
2023-04-10T20:09:43.701Z,1.90
2023-04-10T20:12:13.428Z,1.70
2023-04-10T20:14:40.232Z,2.07
2023-04-10T20:17:07.625Z,2.07
2023-04-10T20:19:34.892Z,2.00
2023-04-10T20:22:02.508Z,2.20
2023-04-10T20:24:29.479Z,2.03
2023-04-10T20:26:57.734Z,1.77
2023-04-10T20:29:24.539Z,2.27
2023-04-10T20:31:51.407Z,2.10
2023-04-10T20:34:18.190Z,2.00
2023-04-10T20:36:44.906Z,2.60
2023-04-10T20:39:11.980Z,2.03
2023-04-10T20:41:44.346Z,2.47
2023-04-10T20:44:11.085Z,2.00
2023-04-10T20:46:38.243Z,2.20
2023-04-10T20:49:04.971Z,2.70
2023-04-10T20:51:33.617Z,2.43
2023-04-10T20:54:00.375Z,1.90
2023-04-10T20:56:33.334Z,2.10
2023-04-10T20:59:09.316Z,2.83
2023-04-10T21:01:36.482Z,2.50
2023-04-10T21:04:03.286Z,2.50
2023-04-10T21:06:33.186Z,2.50
2023-04-10T21:08:59.980Z,2.27
2023-04-10T21:11:27.507Z,2.80
2023-04-10T21:13:54.613Z,2.17
2023-04-10T21:16:21.646Z,2.43
2023-04-10T21:18:48.572Z,2.80
2023-04-10T21:21:15.506Z,2.37
2023-04-10T21:23:42.290Z,2.53
2023-04-10T21:26:09.162Z,2.20
2023-04-10T21:28:36.027Z,2.30
2023-04-10T21:31:02.849Z,2.60
2023-04-10T21:33:29.678Z,2.63
2023-04-10T21:35:56.792Z,2.80
2023-04-10T21:38:26.507Z,2.90
2023-04-10T21:40:53.976Z,2.23
2023-04-10T21:43:21.689Z,2.47
2023-04-10T21:45:49.051Z,2.90
2023-04-10T21:48:16.018Z,2.80
2023-04-10T21:50:45.200Z,2.30
2023-04-10T21:53:12.136Z,2.80
2023-04-10T21:55:41.969Z,2.10
2023-04-10T21:58:11.116Z,2.70
2023-04-10T22:00:37.950Z,2.27
2023-04-10T22:03:04.854Z,2.53
2023-04-10T22:05:31.928Z,3.07
2023-04-10T22:07:58.578Z,3.13
2023-04-10T22:10:25.312Z,2.70
2023-04-10T22:12:52.154Z,3.13
2023-04-10T22:15:19.184Z,3.27
2023-04-10T22:17:46.087Z,2.83
2023-04-10T22:20:16.162Z,2.77
2023-04-10T22:22:42.870Z,3.47
2023-04-10T22:25:09.766Z,3.03
2023-04-10T22:27:36.655Z,3.27
2023-04-10T22:30:04.676Z,4.93
2023-04-10T22:32:32.113Z,3.60
2023-04-10T22:34:59.809Z,3.77
2023-04-10T22:37:27.317Z,4.00
2023-04-10T22:39:56.104Z,3.37
2023-04-10T22:42:23.308Z,3.90
2023-04-10T22:44:50.082Z,4.17
2023-04-10T22:47:16.911Z,3.40
2023-04-10T22:49:43.709Z,3.60
2023-04-10T22:52:11.687Z,3.57
2023-04-10T22:54:38.422Z,3.97
2023-04-10T22:57:05.954Z,3.40
2023-04-10T22:59:32.733Z,3.33
2023-04-10T23:01:59.505Z,3.60
2023-04-10T23:04:26.487Z,3.50
2023-04-10T23:06:56.136Z,4.00
2023-04-10T23:09:22.855Z,3.83
2023-04-10T23:11:49.676Z,3.43
2023-04-10T23:14:16.378Z,3.67
2023-04-10T23:16:45.891Z,3.90
2023-04-10T23:19:12.615Z,4.10
2023-04-10T23:21:39.305Z,4.17
2023-04-10T23:24:06.204Z,3.50
2023-04-10T23:26:36.427Z,3.60
2023-04-10T23:29:03.270Z,3.30
2023-04-10T23:31:30.179Z,3.60
2023-04-10T23:33:56.982Z,3.63
2023-04-10T23:36:23.719Z,3.93
2023-04-10T23:38:50.604Z,3.77
2023-04-10T23:41:17.463Z,4.13
2023-04-10T23:43:44.659Z,3.70
2023-04-10T23:46:11.460Z,4.77
2023-04-10T23:48:38.307Z,4.37
2023-04-10T23:51:06.499Z,3.93
2023-04-10T23:53:33.592Z,3.90
2023-04-10T23:56:00.777Z,3.87
2023-04-10T23:58:27.464Z,3.53
